Time;durP1;ratioP1;P1;durP2;ratioP2;P2;SDS_P1;SDS_P2;PMS_P1;PMS_P2;Temp;Humidity;BMP_temperature;BMP_pressure;BME280_temperature;BME280_humidity;BME280_pressure;Samples;Min_cycle;Max_cycle;Signal;HPM_P1;HPM_P2
2022/05/01 00:01:49;;;;;;;10.00;6.83;;;10.50;99.90;;;;;;5057294;28;20809;-82
2022/05/01 00:04:17;;;;;;;10.80;6.87;;;10.50;99.90;;;;;;5060842;28;20482;-81
2022/05/01 00:06:44;;;;;;;8.73;6.90;;;10.50;99.90;;;;;;5060906;28;20463;-80
2022/05/01 00:09:11;;;;;;;8.77;6.53;;;10.50;99.90;;;;;;5061478;28;20491;-81
2022/05/01 00:11:38;;;;;;;9.40;6.50;;;10.40;99.90;;;;;;5061148;28;20471;-81
2022/05/01 00:14:05;;;;;;;9.43;6.90;;;10.40;99.90;;;;;;5061019;28;20489;-82
2022/05/01 00:16:31;;;;;;;10.87;7.30;;;10.40;99.90;;;;;;5060383;28;20458;-82
2022/05/01 00:18:58;;;;;;;9.70;7.40;;;10.30;99.90;;;;;;5060426;28;20720;-82
2022/05/01 00:21:26;;;;;;;8.40;6.80;;;10.30;99.90;;;;;;5059818;28;20522;-82
2022/05/01 00:23:53;;;;;;;6.83;6.13;;;10.20;99.90;;;;;;5059821;28;20475;-81
2022/05/01 00:26:20;;;;;;;10.03;6.77;;;10.20;99.90;;;;;;5060733;28;20836;-81
2022/05/01 00:28:47;;;;;;;8.23;6.83;;;10.20;99.90;;;;;;5060191;28;21220;-82
2022/05/01 00:31:16;;;;;;;9.37;6.87;;;10.10;99.90;;;;;;5068606;28;20518;-81
2022/05/01 00:36:27;;;;;;;9.20;7.50;;;10.10;99.90;;;;;;5023871;28;20437;-81
2022/05/01 00:38:56;;;;;;;10.90;6.07;;;10.00;99.90;;;;;;5057098;28;20459;-81
2022/05/01 00:41:26;;;;;;;10.70;7.37;;;10.00;99.90;;;;;;5056483;28;20538;-81
2022/05/01 00:44:03;;;;;;;8.90;7.10;;;10.00;99.90;;;;;;5056582;28;20472;-82
2022/05/01 00:46:31;;;;;;;11.17;6.70;;;10.00;99.90;;;;;;5057212;28;20497;-81
2022/05/01 00:48:59;;;;;;;9.40;6.40;;;10.00;99.90;;;;;;5056424;28;20484;-82
2022/05/01 00:51:26;;;;;;;10.23;7.50;;;10.00;99.90;;;;;;5055867;28;20521;-81
2022/05/01 00:53:55;;;;;;;8.27;6.67;;;9.90;99.90;;;;;;5056150;28;20470;-81
2022/05/01 00:56:22;;;;;;;9.30;7.40;;;9.90;99.90;;;;;;5057357;28;20447;-80
2022/05/01 00:58:49;;;;;;;9.40;7.03;;;9.80;99.90;;;;;;5055916;28;21006;-79
2022/05/01 01:01:16;;;;;;;10.07;6.53;;;9.80;99.90;;;;;;5056257;28;20457;-80
2022/05/01 01:03:44;;;;;;;11.50;7.97;;;9.80;99.90;;;;;;5055798;28;20862;-80
2022/05/01 01:06:11;;;;;;;8.63;6.83;;;9.70;99.90;;;;;;5057166;28;20481;-80
2022/05/01 01:08:39;;;;;;;9.37;7.03;;;9.70;99.90;;;;;;5055776;28;20478;-80
2022/05/01 01:11:07;;;;;;;9.07;7.33;;;9.70;99.90;;;;;;5036725;28;20451;-81
2022/05/01 01:13:34;;;;;;;8.47;6.80;;;9.70;99.90;;;;;;5052751;28;20552;-80
2022/05/01 01:18:29;;;;;;;8.27;6.43;;;9.70;99.90;;;;;;5030800;28;20514;-82
2022/05/01 01:20:57;;;;;;;8.50;7.10;;;9.70;99.90;;;;;;5035405;28;20463;-81
2022/05/01 01:23:24;;;;;;;8.47;6.50;;;9.60;99.90;;;;;;5036949;28;20536;-81
2022/05/01 01:25:52;;;;;;;10.20;7.07;;;9.50;99.90;;;;;;5036096;28;20453;-82
2022/05/01 01:28:19;;;;;;;9.03;7.27;;;9.40;99.90;;;;;;5035718;28;20477;-81
2022/05/01 01:33:31;;;;;;;8.60;7.00;;;9.30;99.90;;;;;;5019242;28;20433;-84
2022/05/01 01:36:03;;;;;;;9.00;7.33;;;9.30;99.90;;;;;;5025567;28;20449;-83
2022/05/01 01:38:30;;;;;;;9.77;7.10;;;9.20;99.90;;;;;;5043793;28;20451;-83
2022/05/01 01:40:59;;;;;;;9.10;7.20;;;9.10;99.90;;;;;;5039855;28;20528;-82
2022/05/01 01:43:29;;;;;;;9.10;7.33;;;9.00;99.90;;;;;;5032165;28;20891;-82
2022/05/01 01:45:56;;;;;;;8.63;7.43;;;9.00;99.90;;;;;;5037418;28;20501;-82
2022/05/01 01:48:25;;;;;;;7.83;6.87;;;8.90;99.90;;;;;;5037213;28;20460;-82
2022/05/01 01:51:00;;;;;;;9.83;6.57;;;8.80;99.90;;;;;;5036126;28;20962;-81
2022/05/01 01:53:28;;;;;;;12.13;7.93;;;8.80;99.90;;;;;;5035284;28;20457;-80
2022/05/01 01:55:56;;;;;;;10.50;7.20;;;8.70;99.90;;;;;;5034960;28;20490;-82
2022/05/01 01:58:23;;;;;;;9.33;7.30;;;8.60;99.90;;;;;;5034446;28;21054;-82
2022/05/01 02:00:50;;;;;;;11.23;6.97;;;8.60;99.90;;;;;;5034792;28;20891;-82
2022/05/01 02:03:16;;;;;;;12.00;6.93;;;8.50;99.90;;;;;;5034621;28;20491;-82
2022/05/01 02:05:44;;;;;;;10.00;7.93;;;8.50;99.90;;;;;;5034234;28;20549;-82
2022/05/01 02:08:12;;;;;;;8.63;6.50;;;8.40;99.90;;;;;;5034330;28;20478;-82
2022/05/01 02:10:39;;;;;;;11.83;6.67;;;8.30;99.90;;;;;;5034080;28;21033;-82
2022/05/01 02:13:06;;;;;;;10.27;7.27;;;8.30;99.90;;;;;;5034461;28;20490;-82
2022/05/01 02:15:34;;;;;;;9.80;7.60;;;8.20;99.90;;;;;;5033666;28;20458;-83
2022/05/01 02:18:01;;;;;;;8.27;6.97;;;8.20;99.90;;;;;;5033918;28;20912;-84
2022/05/01 02:21:33;;;;;;;10.00;7.60;;;8.10;99.90;;;;;;5033577;28;20959;-82
2022/05/01 02:23:18;;;;;;;9.83;7.43;;;8.10;99.90;;;;;;5033920;28;20469;-82
2022/05/01 02:25:44;;;;;;;10.77;7.30;;;8.00;99.90;;;;;;5036820;28;20449;-82
2022/05/01 02:28:11;;;;;;;8.33;6.27;;;7.90;99.90;;;;;;5039721;28;20535;-83
2022/05/01 02:30:38;;;;;;;10.50;7.33;;;7.90;99.90;;;;;;5039670;28;20484;-82
2022/05/01 02:33:06;;;;;;;8.43;7.17;;;7.80;99.90;;;;;;5039977;28;20453;-83
2022/05/01 02:35:33;;;;;;;12.63;8.00;;;7.80;99.90;;;;;;5040065;28;20532;-83
2022/05/01 02:38:00;;;;;;;9.43;7.40;;;7.70;99.90;;;;;;5039331;28;20560;-84
2022/05/01 02:40:29;;;;;;;10.10;8.00;;;7.60;99.90;;;;;;5039824;28;20532;-83
2022/05/01 02:42:58;;;;;;;10.30;7.30;;;7.60;99.90;;;;;;5039809;28;20463;-83
2022/05/01 02:45:25;;;;;;;8.57;7.00;;;7.60;99.90;;;;;;5039894;28;20439;-83
2022/05/01 02:47:52;;;;;;;10.63;7.90;;;7.50;99.90;;;;;;5040837;28;20476;-83
2022/05/01 02:50:19;;;;;;;8.00;6.83;;;7.50;99.90;;;;;;5039903;28;20489;-83
2022/05/01 02:52:46;;;;;;;11.53;8.50;;;7.40;99.90;;;;;;5040802;28;20453;-83
2022/05/01 02:55:14;;;;;;;10.57;8.30;;;7.30;99.90;;;;;;5042436;28;20503;-85
2022/05/01 02:57:42;;;;;;;9.37;7.00;;;7.30;99.90;;;;;;5051122;28;20482;-82
2022/05/01 03:00:16;;;;;;;12.13;7.90;;;7.30;99.90;;;;;;5046787;28;20499;-83
2022/05/01 03:02:44;;;;;;;9.23;7.03;;;7.20;99.90;;;;;;5038050;28;20452;-82
2022/05/01 03:05:11;;;;;;;8.50;6.73;;;7.20;99.90;;;;;;5039238;28;20454;-83
2022/05/01 03:07:38;;;;;;;9.13;8.13;;;7.20;99.90;;;;;;5037620;28;20910;-83
2022/05/01 03:10:05;;;;;;;10.20;8.33;;;7.10;99.90;;;;;;5037900;28;20521;-83
2022/05/01 03:12:32;;;;;;;10.40;7.97;;;7.10;99.90;;;;;;5038220;28;20896;-83
2022/05/01 03:15:02;;;;;;;9.30;7.57;;;7.10;99.90;;;;;;5038108;28;20449;-83
2022/05/01 03:22:10;;;;;;;12.17;7.47;;;7.00;99.90;;;;;;5037380;28;20496;-83
2022/05/01 03:23:00;;;;;;;10.77;8.40;;;6.90;99.90;;;;;;5038077;28;20452;-83
2022/05/01 03:25:27;;;;;;;11.17;8.30;;;6.90;99.90;;;;;;5040674;28;20490;-83
2022/05/01 03:27:54;;;;;;;10.37;8.03;;;6.90;99.90;;;;;;5040166;28;20478;-83
2022/05/01 03:30:22;;;;;;;10.20;8.20;;;6.90;99.90;;;;;;5039977;28;20541;-83
2022/05/01 03:32:50;;;;;;;10.77;8.67;;;6.80;99.90;;;;;;5040683;28;20456;-83
2022/05/01 03:35:17;;;;;;;10.70;9.20;;;6.80;99.90;;;;;;5040194;28;20466;-83
2022/05/01 03:37:45;;;;;;;11.20;8.37;;;6.70;99.90;;;;;;5044622;28;20518;-83
2022/05/01 03:40:14;;;;;;;8.60;7.60;;;6.70;99.90;;;;;;5042343;28;20451;-83
2022/05/01 03:42:41;;;;;;;11.53;8.37;;;6.70;99.90;;;;;;5041343;28;20448;-84
2022/05/01 03:45:09;;;;;;;10.30;7.40;;;6.60;99.90;;;;;;5040587;28;20457;-83
2022/05/01 03:47:38;;;;;;;18.20;9.73;;;6.60;99.90;;;;;;5040053;28;20468;-84
2022/05/01 03:50:06;;;;;;;12.73;8.43;;;6.60;99.90;;;;;;5040490;28;20574;-83
2022/05/01 03:52:33;;;;;;;12.43;8.07;;;6.60;99.90;;;;;;5040576;28;20630;-83
2022/05/01 03:55:00;;;;;;;9.60;8.40;;;6.50;99.90;;;;;;5041256;28;20460;-83
2022/05/01 03:57:27;;;;;;;12.37;8.47;;;6.50;99.90;;;;;;5041262;28;20476;-83
2022/05/01 03:59:54;;;;;;;12.33;8.10;;;6.50;99.90;;;;;;5039489;28;20455;-86
2022/05/01 04:02:21;;;;;;;9.07;6.60;;;6.50;99.90;;;;;;5040191;28;20459;-84
2022/05/01 04:04:49;;;;;;;12.17;8.37;;;6.50;99.90;;;;;;5039281;28;20559;-83
2022/05/01 04:07:16;;;;;;;11.70;8.00;;;6.40;99.90;;;;;;5039251;28;20567;-84
2022/05/01 04:09:43;;;;;;;12.40;8.20;;;6.40;99.90;;;;;;5038449;28;20482;-83
2022/05/01 04:12:10;;;;;;;11.70;8.60;;;6.40;99.90;;;;;;5038975;28;20459;-84
2022/05/01 04:14:37;;;;;;;10.47;7.73;;;6.40;99.90;;;;;;5039452;28;20539;-84
2022/05/01 04:17:05;;;;;;;10.53;8.10;;;6.40;99.90;;;;;;5038474;28;20511;-84
2022/05/01 04:19:31;;;;;;;14.73;9.33;;;6.40;99.90;;;;;;5037751;28;20456;-84
2022/05/01 04:22:00;;;;;;;15.07;8.97;;;6.30;99.90;;;;;;5037808;28;20452;-84
2022/05/01 04:24:26;;;;;;;12.30;9.30;;;6.30;99.90;;;;;;5040301;28;20449;-84
2022/05/01 04:26:54;;;;;;;11.23;8.37;;;6.30;99.90;;;;;;5030795;28;20479;-83
2022/05/01 04:29:40;;;;;;;12.10;8.77;;;6.30;99.90;;;;;;5038852;28;20494;-83
2022/05/01 04:32:08;;;;;;;10.00;8.90;;;6.30;99.90;;;;;;5035119;28;20463;-85
2022/05/01 04:34:36;;;;;;;13.20;9.10;;;6.30;99.90;;;;;;5039412;28;20463;-84
2022/05/01 04:37:05;;;;;;;11.20;9.43;;;6.20;99.90;;;;;;5039174;28;20503;-82
2022/05/01 04:39:31;;;;;;;11.67;8.67;;;6.30;99.90;;;;;;5038463;28;20457;-81
2022/05/01 04:41:58;;;;;;;12.57;10.00;;;6.30;99.90;;;;;;5039105;28;20546;-81
2022/05/01 04:44:25;;;;;;;14.10;9.80;;;6.20;99.90;;;;;;5035405;28;20520;-81
2022/05/01 04:46:52;;;;;;;13.37;9.03;;;6.30;99.90;;;;;;5034761;28;21011;-80
2022/05/01 04:49:19;;;;;;;13.10;8.70;;;6.30;99.90;;;;;;5035243;28;20548;-80
2022/05/01 04:51:47;;;;;;;14.73;9.40;;;6.40;99.90;;;;;;5039120;28;20448;-81
2022/05/01 04:54:15;;;;;;;15.53;10.23;;;6.40;99.90;;;;;;5039289;28;20451;-80
2022/05/01 04:59:28;;;;;;;12.07;8.90;;;6.50;99.90;;;;;;5038663;28;21025;-82
2022/05/01 05:01:55;;;;;;;16.83;9.83;;;6.50;99.90;;;;;;5039263;28;20462;-80
2022/05/01 05:04:22;;;;;;;11.30;8.57;;;6.60;99.90;;;;;;5039535;28;20838;-81
2022/05/01 05:06:52;;;;;;;13.93;9.70;;;6.60;99.90;;;;;;5038168;28;20476;-80
2022/05/01 05:12:07;;;;;;;15.47;10.70;;;6.80;99.90;;;;;;5044832;28;20607;-80
2022/05/01 05:14:34;;;;;;;12.43;10.17;;;6.90;99.90;;;;;;5042421;28;20475;-81
2022/05/01 05:17:01;;;;;;;13.37;10.73;;;6.90;99.90;;;;;;5038013;28;20872;-82
2022/05/01 05:19:28;;;;;;;11.73;10.50;;;7.00;99.90;;;;;;5040537;28;20464;-80
2022/05/01 05:21:55;;;;;;;14.83;10.23;;;7.10;99.90;;;;;;5038697;28;21029;-79
2022/05/01 05:24:23;;;;;;;12.17;10.50;;;7.10;99.90;;;;;;5036451;28;20898;-78
2022/05/01 05:26:50;;;;;;;10.73;9.47;;;7.20;99.90;;;;;;5036185;28;20469;-80
2022/05/01 05:29:17;;;;;;;14.00;11.10;;;7.30;99.90;;;;;;5038600;28;20464;-80
2022/05/01 05:31:43;;;;;;;12.00;10.40;;;7.30;99.90;;;;;;5038776;28;20458;-82
2022/05/01 05:34:10;;;;;;;13.60;9.90;;;7.40;99.90;;;;;;5038138;28;21036;-81
2022/05/01 05:36:37;;;;;;;13.80;10.83;;;7.40;99.90;;;;;;5039121;28;20476;-80
2022/05/01 05:39:04;;;;;;;16.33;10.23;;;7.50;99.90;;;;;;5038041;28;20544;-81
2022/05/01 05:41:32;;;;;;;11.33;9.87;;;7.50;99.90;;;;;;5037097;28;20452;-79
2022/05/01 05:43:59;;;;;;;13.47;9.70;;;7.50;99.90;;;;;;5035126;28;20456;-78
2022/05/01 05:46:26;;;;;;;11.97;9.70;;;7.50;99.90;;;;;;5034835;28;20516;-78
2022/05/01 05:48:52;;;;;;;12.27;10.20;;;7.60;99.90;;;;;;5034885;28;20453;-78
2022/05/01 05:51:19;;;;;;;12.53;10.37;;;7.70;99.90;;;;;;5036585;28;20484;-79
2022/05/01 05:53:46;;;;;;;13.00;10.10;;;7.70;99.90;;;;;;5037433;28;20863;-79
2022/05/01 05:56:13;;;;;;;12.70;10.50;;;7.70;99.90;;;;;;5038095;28;20963;-78
2022/05/01 05:58:41;;;;;;;12.80;9.73;;;7.80;99.90;;;;;;5037962;28;20484;-79
2022/05/01 06:01:09;;;;;;;12.93;9.37;;;7.90;99.90;;;;;;5037956;28;20449;-79
2022/05/01 06:03:37;;;;;;;12.27;9.20;;;7.90;99.90;;;;;;5033638;28;20975;-79
2022/05/01 06:06:05;;;;;;;13.43;9.53;;;8.00;99.90;;;;;;5038203;28;20468;-79
2022/05/01 06:08:32;;;;;;;11.03;9.50;;;8.00;99.90;;;;;;5038705;28;20455;-77
2022/05/01 06:10:59;;;;;;;11.80;9.40;;;8.20;99.90;;;;;;5038623;28;20495;-79
2022/05/01 06:13:25;;;;;;;12.33;9.00;;;8.30;99.90;;;;;;5037570;28;20823;-79
2022/05/01 06:15:54;;;;;;;10.53;8.20;;;8.50;99.90;;;;;;5034532;28;20459;-81
2022/05/01 06:18:20;;;;;;;11.60;9.30;;;8.70;99.90;;;;;;5037894;28;21031;-80
2022/05/01 06:20:48;;;;;;;11.70;9.70;;;8.90;99.90;;;;;;5037426;28;20527;-79
2022/05/01 06:23:15;;;;;;;12.07;10.03;;;9.10;99.90;;;;;;5038253;28;20801;-78
2022/05/01 06:25:43;;;;;;;12.50;10.20;;;9.50;99.90;;;;;;5037402;28;21024;-79
2022/05/01 06:28:10;;;;;;;11.13;8.23;;;9.70;99.90;;;;;;5037728;28;20501;-79
2022/05/01 06:30:39;;;;;;;11.10;9.00;;;10.10;99.90;;;;;;5036931;28;20555;-79
2022/05/01 06:33:09;;;;;;;14.53;9.80;;;10.40;99.90;;;;;;5038500;28;20456;-79
2022/05/01 06:35:37;;;;;;;14.77;9.40;;;10.70;99.90;;;;;;5029204;28;20478;-79
2022/05/01 06:38:03;;;;;;;10.53;9.43;;;10.90;99.90;;;;;;5038591;28;20475;-80
2022/05/01 06:40:30;;;;;;;11.43;8.60;;;11.20;99.90;;;;;;5026357;28;20480;-78
2022/05/01 06:43:03;;;;;;;12.53;8.50;;;11.30;99.90;;;;;;5029562;28;21140;-78
2022/05/01 06:45:29;;;;;;;11.77;8.20;;;11.60;99.90;;;;;;5027646;28;20469;-80
2022/05/01 06:47:56;;;;;;;11.67;7.50;;;11.70;99.90;;;;;;5030318;28;20496;-79
2022/05/01 06:50:24;;;;;;;10.07;7.90;;;11.80;99.90;;;;;;5034423;28;20579;-78
2022/05/01 06:52:51;;;;;;;9.87;8.40;;;11.90;99.90;;;;;;5034052;28;20493;-78
2022/05/01 06:55:18;;;;;;;11.07;7.97;;;12.20;99.90;;;;;;5033653;28;20453;-79
2022/05/01 06:57:45;;;;;;;13.20;8.53;;;12.00;99.90;;;;;;5034459;28;20482;-78
2022/05/01 07:00:14;;;;;;;8.00;7.20;;;12.10;99.90;;;;;;5031716;28;20535;-79
2022/05/01 07:02:45;;;;;;;12.97;7.43;;;12.30;99.90;;;;;;5029355;28;20465;-79
2022/05/01 07:05:15;;;;;;;8.60;7.40;;;12.70;99.90;;;;;;5037097;28;20466;-78
2022/05/01 07:07:43;;;;;;;8.57;7.10;;;12.60;99.90;;;;;;5036925;28;20469;-80
2022/05/01 07:10:10;;;;;;;9.77;7.23;;;12.90;99.90;;;;;;5034239;28;20482;-79
2022/05/01 07:12:37;;;;;;;8.70;7.20;;;13.20;99.90;;;;;;5039519;28;20511;-80
2022/05/01 07:15:05;;;;;;;8.53;7.33;;;13.20;99.90;;;;;;5040224;28;20458;-79
2022/05/01 07:17:32;;;;;;;9.40;6.60;;;13.50;99.90;;;;;;5039776;28;21041;-79
2022/05/01 07:19:59;;;;;;;8.47;6.83;;;13.90;99.90;;;;;;5039008;28;20955;-81
2022/05/01 07:22:27;;;;;;;8.50;7.33;;;14.30;99.90;;;;;;5039723;28;20446;-81
2022/05/01 07:24:55;;;;;;;9.03;6.47;;;14.20;99.90;;;;;;5083675;22;20570;-82
2022/05/01 07:27:22;;;;;;;7.90;7.03;;;14.40;99.90;;;;;;5095168;28;20446;-82
2022/05/01 07:29:49;;;;;;;9.50;7.20;;;14.70;99.90;;;;;;5097186;28;20439;-78
2022/05/01 07:32:16;;;;;;;8.90;6.90;;;14.60;99.90;;;;;;5096612;28;20485;-81
2022/05/01 07:34:42;;;;;;;9.43;7.20;;;14.80;99.90;;;;;;5092236;28;20484;-80
2022/05/01 07:37:13;;;;;;;8.90;7.63;;;15.10;99.90;;;;;;5103243;28;20445;-79
2022/05/01 07:39:40;;;;;;;8.27;7.13;;;15.00;99.90;;;;;;5098839;28;20526;-81
2022/05/01 07:42:10;;;;;;;8.40;7.10;;;14.80;99.90;;;;;;5096208;28;20474;-80
2022/05/01 07:44:37;;;;;;;9.20;7.20;;;14.90;99.90;;;;;;5090270;28;20497;-79
2022/05/01 07:47:06;;;;;;;9.60;6.77;;;15.10;99.90;;;;;;5081219;28;20976;-79
2022/05/01 07:49:33;;;;;;;9.70;8.00;;;15.30;99.90;;;;;;5085582;28;20504;-81
2022/05/01 07:52:00;;;;;;;9.17;6.60;;;15.40;99.90;;;;;;5096669;28;20477;-79
2022/05/01 07:54:31;;;;;;;10.93;7.30;;;15.60;99.90;;;;;;5084472;28;21006;-78
2022/05/01 07:56:59;;;;;;;11.13;6.90;;;15.50;99.90;;;;;;5106018;28;20445;-79
2022/05/01 07:59:27;;;;;;;10.10;6.57;;;15.20;99.90;;;;;;5076878;28;20915;-82
2022/05/01 08:01:54;;;;;;;7.23;6.23;;;15.70;99.90;;;;;;5077946;28;20545;-79
2022/05/01 08:04:29;;;;;;;11.03;7.27;;;16.10;99.90;;;;;;5076378;28;20454;-81
2022/05/01 08:07:02;;;;;;;7.53;6.57;;;16.50;99.90;;;;;;5083719;28;20467;-79
2022/05/01 08:09:30;;;;;;;7.13;5.73;;;16.70;99.90;;;;;;5095581;28;20475;-81
2022/05/01 08:11:58;;;;;;;7.90;5.87;;;17.40;99.90;;;;;;5076573;28;20506;-81
2022/05/01 08:14:24;;;;;;;9.50;6.47;;;18.00;99.90;;;;;;5103451;28;20449;-79
2022/05/01 08:16:53;;;;;;;7.43;6.63;;;17.80;99.90;;;;;;5081028;28;20465;-79
2022/05/01 08:22:05;;;;;;;6.30;5.67;;;18.50;99.90;;;;;;5085156;28;21040;-81
2022/05/01 08:24:33;;;;;;;8.77;6.40;;;18.90;99.90;;;;;;5095986;28;20478;-78
2022/05/01 08:27:05;;;;;;;8.83;6.30;;;18.40;99.90;;;;;;5086041;28;20534;-79
2022/05/01 08:29:32;;;;;;;10.40;6.90;;;18.20;99.90;;;;;;5081860;28;20454;-82
2022/05/01 08:32:01;;;;;;;9.23;6.93;;;18.10;99.90;;;;;;5080034;28;20516;-82
2022/05/01 08:34:28;;;;;;;7.90;6.63;;;17.70;99.90;;;;;;5093139;28;20461;-80
2022/05/01 08:36:55;;;;;;;7.40;5.93;;;17.10;99.90;;;;;;5089790;28;20519;-78
2022/05/01 08:39:22;;;;;;;9.40;6.80;;;17.40;99.90;;;;;;5081597;28;20459;-81
2022/05/01 08:41:49;;;;;;;8.40;6.40;;;17.40;99.90;;;;;;5081734;28;20859;-80
2022/05/01 08:50:09;;;;;;;8.37;6.63;;;17.40;99.90;;;;;;4907774;28;20302;-81
2022/05/01 08:52:38;;;;;;;7.20;6.07;;;17.60;99.90;;;;;;5032315;28;20492;-78
2022/05/01 08:55:06;;;;;;;8.07;6.70;;;17.30;99.90;;;;;;5032145;28;20484;-82
2022/05/01 08:57:33;;;;;;;8.37;6.97;;;17.40;99.90;;;;;;5013546;28;21027;-81
2022/05/01 09:00:07;;;;;;;8.90;6.63;;;17.50;99.90;;;;;;5016598;28;20460;-79
2022/05/01 09:02:35;;;;;;;7.63;6.67;;;17.40;99.90;;;;;;5018220;28;20483;-79
2022/05/01 09:05:02;;;;;;;8.40;7.00;;;17.70;99.90;;;;;;5018758;28;20469;-78
2022/05/01 09:07:40;;;;;;;;;;;;;;;;;;;;;
2022/05/01 09:10:09;;;;;;;8.73;6.97;;;18.10;99.90;;;;;;5019196;28;20954;-81
2022/05/01 09:12:51;;;;;;;10.37;7.20;;;18.20;99.90;;;;;;5009849;28;21018;-80
2022/05/01 09:15:33;;;;;;;8.20;5.80;;;18.40;99.90;;;;;;5022806;28;20546;-79
2022/05/01 09:21:07;;;;;;;7.90;6.40;;;18.60;99.90;;;;;;5023401;28;20451;-82
2022/05/01 09:23:39;;;;;;;7.00;6.30;;;18.70;99.90;;;;;;5015624;28;20488;-82
2022/05/01 09:26:06;;;;;;;7.83;6.20;;;18.90;99.90;;;;;;5031545;28;20476;-79
2022/05/01 09:28:48;;;;;;;8.50;6.50;;;18.90;99.90;;;;;;5032991;28;20465;-79
2022/05/01 09:31:18;;;;;;;7.73;6.60;;;18.80;99.90;;;;;;5020218;28;20491;-79
2022/05/01 09:33:45;;;;;;;8.63;6.20;;;19.00;99.90;;;;;;5027247;28;20454;-82
2022/05/01 09:36:34;;;;;;;6.93;5.83;;;19.20;99.90;;;;;;5021863;28;20489;-79
2022/05/01 09:39:06;;;;;;;7.00;5.77;;;19.10;99.90;;;;;;5021654;28;20498;-78
2022/05/01 09:41:33;;;;;;;7.30;5.33;;;19.00;99.90;;;;;;5015675;28;20806;-80
2022/05/01 09:44:13;;;;;;;7.70;6.83;;;19.20;99.90;;;;;;5031178;28;20537;-79
2022/05/01 09:46:40;;;;;;;7.77;6.30;;;19.30;99.90;;;;;;5018025;28;20468;-80
2022/05/01 09:49:13;;;;;;;6.53;5.80;;;19.50;99.90;;;;;;5022204;28;20458;-79
2022/05/01 09:51:43;;;;;;;8.87;6.57;;;19.90;99.90;;;;;;5020935;28;21102;-81
2022/05/01 09:54:19;;;;;;;8.40;6.13;;;20.00;99.90;;;;;;4993596;28;20882;-77
2022/05/01 09:56:46;;;;;;;7.30;5.43;;;20.30;99.90;;;;;;5005195;28;20555;-79
2022/05/01 09:59:14;;;;;;;7.50;6.50;;;20.20;99.90;;;;;;4996822;28;20448;-81
2022/05/01 10:01:53;;;;;;;7.93;6.37;;;19.80;99.90;;;;;;4991772;28;20453;-81
2022/05/01 10:04:23;;;;;;;8.00;5.50;;;20.00;99.90;;;;;;4988681;28;20541;-81
2022/05/01 10:06:51;;;;;;;6.00;5.20;;;19.70;99.90;;;;;;4993802;28;20468;-79
2022/05/01 10:09:20;;;;;;;7.87;5.10;;;19.70;99.90;;;;;;4990742;28;20832;-79
2022/05/01 10:11:49;;;;;;;5.77;5.10;;;19.70;99.90;;;;;;4997659;28;20581;-82
2022/05/01 10:14:20;;;;;;;11.57;6.47;;;19.80;99.90;;;;;;4993083;28;20545;-79
2022/05/01 10:16:47;;;;;;;7.30;5.97;;;19.30;99.90;;;;;;4993550;28;20457;-79
2022/05/01 10:19:15;;;;;;;8.37;6.10;;;19.20;99.90;;;;;;4999528;28;21043;-81
2022/05/01 10:21:46;;;;;;;6.87;5.43;;;18.90;99.90;;;;;;4996271;28;20466;-81
2022/05/01 10:24:13;;;;;;;9.83;5.40;;;18.80;99.90;;;;;;4997850;28;20496;-80
2022/05/01 10:26:47;;;;;;;7.60;6.17;;;18.70;99.90;;;;;;5000117;28;20958;-80
2022/05/01 10:29:35;;;;;;;7.30;5.27;;;18.50;99.90;;;;;;4997309;28;20875;-82
2022/05/01 10:32:30;;;;;;;7.57;5.00;;;18.70;99.90;;;;;;4995515;28;20484;-79
2022/05/01 10:35:27;;;;;;;7.43;6.17;;;18.80;99.90;;;;;;4996546;28;20471;-79
2022/05/01 10:38:26;;;;;;;7.93;5.60;;;18.70;99.90;;;;;;5000607;28;20456;-79
2022/05/01 10:40:54;;;;;;;6.60;5.30;;;18.70;99.90;;;;;;4975694;28;20971;-82
2022/05/01 10:43:29;;;;;;;7.00;4.80;;;18.80;99.90;;;;;;4993567;28;20455;-82
2022/05/01 10:45:57;;;;;;;7.60;5.50;;;18.90;99.90;;;;;;4998152;28;20565;-79
2022/05/01 10:48:52;;;;;;;7.07;6.03;;;18.60;99.90;;;;;;5000146;28;20457;-78
2022/05/01 10:51:44;;;;;;;7.10;5.37;;;18.10;99.90;;;;;;4997686;28;20495;-79
2022/05/01 10:54:31;;;;;;;7.93;5.50;;;18.90;99.90;;;;;;4984613;28;20456;-82
2022/05/01 10:57:13;;;;;;;7.07;5.87;;;19.60;99.90;;;;;;5000510;28;20459;-78
2022/05/01 10:59:46;;;;;;;5.30;4.60;;;19.70;99.90;;;;;;4997922;28;20473;-81
2022/05/01 11:02:30;;;;;;;7.20;5.73;;;20.30;99.90;;;;;;4996407;28;20457;-82
2022/05/01 11:05:01;;;;;;;7.60;6.50;;;20.40;99.90;;;;;;4993616;28;20852;-79
2022/05/01 11:07:30;;;;;;;7.17;6.50;;;20.60;99.90;;;;;;4994681;28;20510;-80
2022/05/01 11:10:00;;;;;;;9.47;7.00;;;21.50;99.00;;;;;;4996728;28;20465;-78
2022/05/01 11:12:28;;;;;;;6.53;5.60;;;21.80;96.80;;;;;;4996567;28;20482;-79
2022/05/01 11:15:02;;;;;;;8.00;6.30;;;22.40;95.10;;;;;;4995782;28;20478;-79
2022/05/01 11:17:54;;;;;;;9.10;7.07;;;22.40;95.50;;;;;;4980106;28;20462;-81
2022/05/01 11:20:39;;;;;;;6.93;6.10;;;22.00;96.00;;;;;;4989821;28;20451;-82
2022/05/01 11:23:34;;;;;;;7.77;6.43;;;22.10;94.10;;;;;;5003710;28;20474;-81
2022/05/01 11:26:20;;;;;;;7.77;6.67;;;22.10;93.20;;;;;;4967763;28;20555;-80
2022/05/01 11:28:49;;;;;;;7.00;6.30;;;22.30;92.70;;;;;;4999231;28;20451;-81
2022/05/01 11:31:49;;;;;;;7.20;6.50;;;22.20;92.10;;;;;;4996691;28;20442;-78
2022/05/01 11:34:36;;;;;;;8.10;5.97;;;22.50;93.00;;;;;;5001302;28;20466;-80
2022/05/01 11:37:06;;;;;;;8.20;6.40;;;22.40;94.10;;;;;;4992185;28;20454;-79
2022/05/01 11:40:16;;;;;;;6.80;6.10;;;22.00;93.90;;;;;;4995948;28;21009;-81
2022/05/01 11:42:43;;;;;;;7.23;6.47;;;22.20;94.00;;;;;;4996400;28;20451;-80
2022/05/01 11:45:11;;;;;;;11.27;6.30;;;21.20;90.70;;;;;;4996975;28;20514;-82
2022/05/01 11:47:41;;;;;;;10.10;6.93;;;21.50;93.40;;;;;;4996647;28;20474;-81
2022/05/01 11:50:17;;;;;;;10.23;8.03;;;21.30;91.10;;;;;;4996654;28;20513;-79
2022/05/01 11:52:47;;;;;;;8.47;6.77;;;20.60;90.40;;;;;;4994908;28;20490;-79
2022/05/01 11:55:15;;;;;;;9.47;7.30;;;20.10;92.10;;;;;;4997466;28;20500;-81
2022/05/01 12:03:13;;;;;;;6.77;6.13;;;19.90;91.20;;;;;;4981268;28;20469;-81
2022/05/01 12:05:44;;;;;;;8.03;7.20;;;20.30;92.90;;;;;;4980636;28;20479;-81
2022/05/01 12:08:11;;;;;;;9.50;6.27;;;21.10;95.00;;;;;;4981015;28;20467;-82
2022/05/01 12:10:42;;;;;;;8.37;6.83;;;21.10;90.00;;;;;;4999623;28;20494;-82
2022/05/01 12:13:19;;;;;;;8.20;7.40;;;22.30;90.00;;;;;;4997004;28;20491;-81
2022/05/01 12:15:46;;;;;;;5.90;5.30;;;24.40;90.80;;;;;;4989518;28;20482;-82
2022/05/01 12:18:15;;;;;;;8.23;5.57;;;26.30;86.60;;;;;;4999486;28;20469;-78
2022/05/01 12:20:42;;;;;;;7.03;6.30;;;28.00;74.00;;;;;;4999880;28;20460;-81
2022/05/01 12:23:13;;;;;;;7.27;5.83;;;28.30;69.00;;;;;;4997002;28;21164;-81
2022/05/01 12:25:41;;;;;;;8.13;6.27;;;28.10;69.00;;;;;;5006205;28;20470;-79
2022/05/01 12:28:10;;;;;;;7.43;6.60;;;27.50;64.30;;;;;;4999991;28;20505;-83
2022/05/01 12:30:37;;;;;;;7.30;6.60;;;26.50;61.30;;;;;;4997671;28;20516;-82
2022/05/01 12:33:04;;;;;;;7.80;7.00;;;25.80;66.40;;;;;;5002188;28;20936;-79
2022/05/01 12:35:55;;;;;;;8.37;7.57;;;24.40;68.40;;;;;;4998211;28;20505;-80
2022/05/01 12:38:22;;;;;;;6.90;6.20;;;22.90;66.20;;;;;;4995299;28;20508;-80
2022/05/01 12:43:52;;;;;;;10.10;7.13;;;22.50;68.90;;;;;;5007160;28;20466;-79
2022/05/01 12:46:27;;;;;;;7.87;7.07;;;22.00;71.20;;;;;;4998217;28;20478;-80
2022/05/01 12:48:58;;;;;;;8.20;6.30;;;22.00;73.10;;;;;;4995239;28;20457;-77
2022/05/01 12:51:35;;;;;;;7.53;5.93;;;21.70;72.80;;;;;;4995829;28;20509;-80
2022/05/01 12:54:09;;;;;;;7.50;6.30;;;21.80;75.80;;;;;;4995309;28;20466;-80
2022/05/01 12:56:39;;;;;;;8.73;7.10;;;21.10;72.20;;;;;;4995764;28;20481;-78
2022/05/01 12:59:26;;;;;;;8.13;7.23;;;21.10;74.40;;;;;;4988626;28;20462;-77
2022/05/01 13:01:55;;;;;;;7.10;6.23;;;21.00;74.90;;;;;;4992046;28;20612;-78
2022/05/01 13:04:24;;;;;;;7.70;6.90;;;20.40;74.70;;;;;;5005598;28;20826;-80
2022/05/01 13:06:53;;;;;;;7.43;6.17;;;20.20;76.50;;;;;;5008064;28;20950;-78
2022/05/01 13:09:20;;;;;;;8.53;7.40;;;20.30;74.90;;;;;;4995378;28;20465;-79
2022/05/01 13:12:01;;;;;;;9.90;7.40;;;20.30;76.30;;;;;;4994145;28;20471;-77
2022/05/01 13:14:32;;;;;;;9.23;6.80;;;19.50;75.00;;;;;;4995775;28;20506;-77
2022/05/01 13:17:10;;;;;;;6.67;5.97;;;19.80;77.60;;;;;;4994839;28;20930;-76
2022/05/01 13:19:38;;;;;;;8.73;7.60;;;20.10;77.90;;;;;;4993640;28;20457;-77
2022/05/01 13:22:08;;;;;;;8.73;7.23;;;20.00;76.80;;;;;;4995896;28;20464;-77
2022/05/01 13:24:36;;;;;;;11.60;6.77;;;19.70;78.00;;;;;;4995754;28;20508;-79
2022/05/01 13:27:05;;;;;;;11.87;7.07;;;19.90;78.60;;;;;;4996624;28;20822;-78
2022/05/01 13:29:34;;;;;;;7.37;6.67;;;20.10;79.90;;;;;;4995381;28;20453;-79
2022/05/01 13:32:03;;;;;;;10.23;7.27;;;19.70;77.80;;;;;;4995200;28;21232;-80
2022/05/01 13:34:30;;;;;;;9.80;7.80;;;19.40;78.00;;;;;;4994989;28;20855;-80
2022/05/01 13:36:59;;;;;;;7.43;6.63;;;19.70;80.00;;;;;;4989242;28;20458;-81
2022/05/01 13:44:44;;;;;;;11.00;7.77;;;20.10;81.60;;;;;;4997165;28;20469;-79